Share

Andrews, SC

Spring Gully (KSCGEORG8) Elev 30 ft | 33.38 °N, 79.42 °W | Change Station
Active Advisory: Flood Warning

Current weather conditions updated 12 minutes ago

Clear
Clear
52.9 °F
Feels Like 52.9 °F
N
0.0
Wind Variable Wind from SE
Gusts 0.0 mph
Sunrise 6:44 AM
Sunset 7:51 PM
Moon Waning Gibbous

Today is forecast to be Cooler than yesterday. Chance of afternoon showers.

Pressure 30.36 in
Visibility 10.0 miles
Clouds Clear
Dew Point 52 °F
Humidity 96%
Rainfall -9999.00 in
Snow Depth Not available.
UV 0 out of 16
Pollen 8.90 out of 12
Air Quality Not available.
Flu Activity Local Activity
METAR KGGE 180435Z AUTO 06007KT 10SM CLR 13/12 A3036 RMK AO2

More Conditions Fewer Conditions

Pressure 30.36 in
Visibility 10.0 miles
Clouds Clear
Dew Point 52 °F
Humidity 96%
Rainfall -9999.00 in
Snow Depth Not available.
UV 0 out of 16
Pollen 8.90 out of 12
Air Quality Not available.
Flu Activity Local Activity
METAR KGGE 180435Z AUTO 06007KT 10SM CLR 13/12 A3036 RMK AO2

More Conditions Fewer Conditions

10-Day Forecast

Almanac

Astronomy

Apr. 18, 2014 Rise Set
Actual Time 6:44 AM EDT 7:51 PM EDT
Civil Twilight 6:18 AM EDT 8:17 PM EDT
Nautical Twilight 5:48 AM EDT 8:47 PM EDT
Astronomical Twilight 5:16 AM EDT 9:19 PM EDT
Moon 11:28 PM EDT 9:11 AM EDT
Length of Visible Light 13h 58m
Length of Day
13h 06m
Tomorrow will be 1m 56s longer.
Waning Gibbous, 90% of the Moon is Illuminated
Today
Waning Gibbous
Apr 22
Last Quarter
Apr 29
New
May 6
First Quarter
May 14
Full

Today's Extremes

State Highs State Lows

Community

  • SUNRISE THROUGH THE TREES.
    SUNRISE THROUGH THE TREES.
  • Dog Wood Blossoms
    Dog Wood Blossoms
  • Morning Light
    Morning Light
  • New Day
    New Day
  • Lake Michigan Sunrise
    Lake Michigan Sunrise

WunderPhotos

Upload Photos

1,702,258 photos uploaded!

WunderBlogs® & News

Nearby

Snow Depth

Station Depth Elevation
No new snow has been reported.

Coastal Water Temperatures

Place Temperature
Springmaid Pier, SC 62.1 °F

Earthquake Activity

City Distance Mag. Time & Date
No recent earthquake activity has been reported nearby.
Minimum magnitude displayed is 2.5.

Nearby Weather Stations

Station Location Temp. Dew Point Humidity Wind Precip. Elev Updated Type
Spring Gully, Georgetown, SC 52.9 °F 52 °F 96% SE  at  0.0 mph 0.00 in / hr 30 ft 12:28 AM EDT Normal
Browns Ferry, Georgetown, SC 56.0 °F 53 °F 90% NNE  at  0.0 mph 0.00 in / hr 13 ft 12:40 AM EDT Normal
Debordieu, Georgetown, SC 58.4 °F 54 °F 86% East  at  5.0 mph 0.00 in / hr 36 ft 12:33 AM EDT Normal
MesoWest NERRS METEOROLOGICAL SITE AT NO, Georgetown, SC 61 °F 53 °F 76% ENE  at  17 mph 0.00 in / hr -2 ft 10:45 PM EDT MADIS

Show More Stations Show Fewer Stations

What do you think?

We're not finished. Please let us know what you like, what you don't like, and what you are still missing.